Time;durP1;ratioP1;P1;durP2;ratioP2;P2;SDS_P1;SDS_P2;PMS_P1;PMS_P2;Temp;Humidity;BMP_temperature;BMP_pressure;BME280_temperature;BME280_humidity;BME280_pressure;Samples;Min_cycle;Max_cycle;Signal;HPM_P1;HPM_P2
2021/01/09 00:00:28;;;;;;;9.90;5.53;;;;;;;2.73;100.00;98277.28;5074446;28;20208;-72
2021/01/09 00:02:55;;;;;;;9.90;5.80;;;;;;;2.70;100.00;98283.66;5073175;28;20293;-72
2021/01/09 00:05:22;;;;;;;10.57;5.63;;;;;;;2.69;100.00;98283.84;5079243;28;20215;-72
2021/01/09 00:07:48;;;;;;;11.67;6.03;;;;;;;2.63;100.00;98277.31;5075466;28;20209;-71
2021/01/09 00:10:15;;;;;;;9.00;5.47;;;;;;;2.60;100.00;98277.59;5080261;28;20209;-73
2021/01/09 00:12:42;;;;;;;11.13;5.53;;;;;;;2.77;100.00;98279.50;5085315;28;20220;-72
2021/01/09 00:15:11;;;;;;;9.00;5.33;;;;;;;2.86;100.00;98275.97;5067773;28;20213;-72
2021/01/09 00:17:38;;;;;;;9.73;5.70;;;;;;;2.46;100.00;98280.72;5075963;28;20679;-72
2021/01/09 00:20:07;;;;;;;12.40;6.70;;;;;;;2.57;100.00;98280.53;5079680;28;20212;-72
2021/01/09 00:22:34;;;;;;;12.70;5.47;;;;;;;2.39;100.00;98284.88;5080994;28;20224;-72
2021/01/09 00:25:01;;;;;;;12.50;6.17;;;;;;;2.45;100.00;98284.31;5074279;28;20197;-72
2021/01/09 00:27:28;;;;;;;9.67;5.50;;;;;;;2.54;100.00;98282.63;5082922;28;20204;-72
2021/01/09 00:29:55;;;;;;;10.97;5.47;;;;;;;2.63;100.00;98277.31;5072488;28;20259;-72
2021/01/09 00:32:22;;;;;;;11.37;5.73;;;;;;;2.60;100.00;98277.59;5074481;28;20225;-71
2021/01/09 00:34:49;;;;;;;10.70;5.70;;;;;;;2.68;100.00;98275.09;5079589;28;20613;-71
2021/01/09 00:37:16;;;;;;;10.13;5.63;;;;;;;2.73;100.00;98275.47;5081414;28;20209;-72
2021/01/09 00:39:46;;;;;;;13.10;6.43;;;;;;;2.76;100.00;98280.47;5080141;28;20347;-72
2021/01/09 00:42:13;;;;;;;11.30;5.90;;;;;;;2.73;100.00;98278.13;5076560;28;20237;-72
2021/01/09 00:44:40;;;;;;;12.20;5.27;;;;;;;2.70;100.00;98275.75;5069651;28;20206;-72
2021/01/09 00:47:08;;;;;;;12.20;6.77;;;;;;;2.73;100.00;98277.28;5067823;28;20296;-72
2021/01/09 00:49:35;;;;;;;11.03;6.30;;;;;;;2.73;100.00;98280.75;5076843;28;20249;-72
2021/01/09 00:52:02;;;;;;;11.50;6.20;;;;;;;2.78;100.00;98277.66;5075321;28;20596;-72
2021/01/09 00:54:29;;;;;;;11.73;6.03;;;;;;;2.79;100.00;98282.78;5078978;28;20208;-72
2021/01/09 00:56:56;;;;;;;11.53;6.00;;;;;;;2.80;100.00;98286.28;5077098;28;20205;-72
2021/01/09 00:59:24;;;;;;;9.60;6.00;;;;;;;2.77;100.00;98289.19;5073652;28;20271;-72
2021/01/09 01:01:52;;;;;;;11.90;5.50;;;;;;;2.70;100.00;98294.19;5078742;28;20233;-72
2021/01/09 01:04:19;;;;;;;13.10;6.27;;;;;;;2.67;100.00;98293.66;5076781;28;20730;-72
2021/01/09 01:06:47;;;;;;;10.83;6.33;;;;;;;2.62;100.00;98298.53;5078520;28;20587;-72
2021/01/09 01:09:14;;;;;;;12.03;6.93;;;;;;;2.88;100.00;98296.91;5075209;28;20227;-72
2021/01/09 01:11:41;;;;;;;13.03;6.47;;;;;;;2.95;100.00;98295.34;5065051;28;20240;-72
2021/01/09 01:14:09;;;;;;;12.37;6.53;;;;;;;2.52;100.00;98297.75;5073812;28;20199;-72
2021/01/09 01:16:35;;;;;;;12.93;6.30;;;;;;;2.50;100.00;98300.50;5080536;28;20205;-72
2021/01/09 01:19:02;;;;;;;11.00;6.30;;;;;;;2.50;100.00;98292.59;5074275;28;20237;-72
2021/01/09 01:21:29;;;;;;;12.00;6.07;;;;;;;2.65;100.00;98298.25;5082598;28;20235;-72
2021/01/09 01:23:57;;;;;;;11.43;6.63;;;;;;;2.83;100.00;98301.78;5082928;28;20234;-72
2021/01/09 01:26:23;;;;;;;12.20;6.70;;;;;;;2.63;100.00;98306.31;5077943;28;20208;-72
2021/01/09 01:28:50;;;;;;;10.80;6.00;;;;;;;2.87;100.00;98304.00;5078088;28;20207;-72
2021/01/09 01:31:17;;;;;;;11.23;5.77;;;;;;;2.91;100.00;98308.00;5083153;28;20599;-72
2021/01/09 01:33:44;;;;;;;11.27;6.13;;;;;;;2.84;100.00;98304.28;5077215;28;20266;-72
2021/01/09 01:36:11;;;;;;;12.23;6.27;;;;;;;2.74;100.00;98308.75;5078468;28;20216;-72
2021/01/09 01:38:38;;;;;;;11.10;5.77;;;;;;;2.93;100.00;98305.19;5076896;28;20209;-73
2021/01/09 01:41:06;;;;;;;13.37;6.73;;;;;;;2.94;100.00;98305.06;5069725;28;20721;-73
2021/01/09 01:43:33;;;;;;;13.20;6.23;;;;;;;2.80;100.00;98307.34;5077216;28;20228;-73
2021/01/09 01:46:02;;;;;;;12.53;6.73;;;;;;;2.85;100.00;98311.19;5077901;28;20201;-72
2021/01/09 01:48:29;;;;;;;11.20;6.23;;;;;;;2.85;100.00;98308.56;5077783;28;20211;-71
2021/01/09 01:50:56;;;;;;;11.37;5.53;;;;;;;2.89;100.00;98315.19;5076316;28;20209;-72
2021/01/09 01:53:23;;;;;;;11.80;5.90;;;;;;;2.95;100.00;98313.81;5069786;28;20224;-72
2021/01/09 01:55:50;;;;;;;11.10;6.00;;;;;;;2.81;100.00;98309.84;5068344;28;20202;-72
2021/01/09 01:58:18;;;;;;;13.43;6.97;;;;;;;2.95;100.00;98308.53;5076333;28;20212;-72
2021/01/09 02:00:46;;;;;;;11.93;5.73;;;;;;;2.90;100.00;98303.69;5072925;28;20205;-71
2021/01/09 02:03:14;;;;;;;11.80;6.37;;;;;;;2.95;100.00;98316.44;5067835;28;20612;-73
2021/01/09 02:05:43;;;;;;;12.50;6.70;;;;;;;2.93;100.00;98313.94;5079151;28;20213;-72
2021/01/09 02:08:13;;;;;;;13.13;6.73;;;;;;;2.82;100.00;98319.41;5077685;28;20265;-72
2021/01/09 02:10:43;;;;;;;12.63;7.10;;;;;;;3.00;100.00;98314.19;5073715;28;20204;-72
2021/01/09 02:13:15;;;;;;;12.73;6.60;;;;;;;2.72;100.00;98315.97;5070827;28;20201;-72
2021/01/09 02:15:43;;;;;;;14.47;7.27;;;;;;;2.74;100.00;98313.22;5076163;28;20209;-72
2021/01/09 02:18:10;;;;;;;11.37;6.00;;;;;;;2.90;100.00;98321.31;5069429;28;20557;-73
2021/01/09 02:20:37;;;;;;;10.50;5.97;;;;;;;2.88;100.00;98318.81;5076648;28;20206;-72
2021/01/09 02:23:05;;;;;;;11.77;6.60;;;;;;;3.03;100.00;98314.72;5077963;28;20283;-72
2021/01/09 02:25:32;;;;;;;15.57;7.73;;;;;;;3.00;100.00;98324.75;5084629;28;20205;-72
2021/01/09 02:28:00;;;;;;;13.27;7.00;;;;;;;2.74;100.00;98318.47;5083328;28;20204;-72
2021/01/09 02:30:31;;;;;;;14.13;7.60;;;;;;;2.83;100.00;98318.44;5068720;28;21020;-73
2021/01/09 02:33:02;;;;;;;15.97;7.63;;;;;;;3.03;100.00;98321.78;5074179;28;20315;-72
2021/01/09 02:35:29;;;;;;;16.90;8.23;;;;;;;2.88;100.00;98316.19;5071925;28;20215;-72
2021/01/09 02:37:56;;;;;;;13.17;7.30;;;;;;;2.77;100.00;98318.16;5076402;28;20212;-72
2021/01/09 02:40:24;;;;;;;13.60;7.73;;;;;;;3.08;100.00;98319.53;5072461;28;20213;-72
2021/01/09 02:42:51;;;;;;;15.40;8.17;;;;;;;2.78;100.00;98317.19;5076710;28;20236;-72
2021/01/09 02:45:18;;;;;;;16.10;7.47;;;;;;;2.48;100.00;98318.28;5071469;28;20299;-72
2021/01/09 02:47:44;;;;;;;13.43;7.40;;;;;;;2.63;100.00;98313.38;5073514;28;20207;-72
2021/01/09 02:50:12;;;;;;;15.33;6.80;;;;;;;2.81;100.00;98309.84;5075720;28;20204;-72
2021/01/09 02:52:39;;;;;;;15.03;7.67;;;;;;;2.65;100.00;98312.25;5076219;28;20237;-72
2021/01/09 02:55:07;;;;;;;16.93;8.30;;;;;;;2.78;100.00;98310.13;5078814;28;20660;-72
2021/01/09 02:57:35;;;;;;;18.90;8.43;;;;;;;2.51;100.00;98315.38;5072242;28;20197;-72
2021/01/09 03:00:03;;;;;;;18.47;9.13;;;;;;;2.46;100.00;98309.69;5068116;28;20209;-69
2021/01/09 03:02:30;;;;;;;19.20;9.23;;;;;;;2.59;100.00;98317.28;5067146;28;20672;-71
2021/01/09 03:04:57;;;;;;;19.23;8.40;;;;;;;2.73;100.00;98315.00;5065084;28;20205;-72
2021/01/09 03:07:23;;;;;;;16.90;8.83;;;;;;;2.54;100.00;98316.88;5080122;28;20736;-72
2021/01/09 03:09:50;;;;;;;16.43;8.47;;;;;;;2.78;100.00;98323.31;5067839;28;20573;-72
2021/01/09 03:12:17;;;;;;;15.17;8.23;;;;;;;2.73;100.00;98322.91;5067280;28;20216;-71
2021/01/09 03:14:45;;;;;;;21.27;9.80;;;;;;;2.59;100.00;98328.63;5070130;28;20204;-72
2021/01/09 03:17:11;;;;;;;19.37;8.87;;;;;;;2.65;100.00;98329.88;5074371;28;20586;-71
2021/01/09 03:19:38;;;;;;;19.10;9.50;;;;;;;2.86;100.00;98331.31;5076297;28;20675;-71
2021/01/09 03:22:05;;;;;;;19.37;8.57;;;;;;;2.94;100.00;98335.84;5076260;28;20225;-72
2021/01/09 03:24:32;;;;;;;17.53;9.13;;;;;;;3.03;100.00;98341.09;5073462;28;20196;-71
2021/01/09 03:26:58;;;;;;;17.33;8.20;;;;;;;2.93;100.00;98337.66;5070973;28;20200;-71
2021/01/09 03:29:25;;;;;;;18.90;8.93;;;;;;;2.59;100.00;98341.81;5070796;28;20212;-71
2021/01/09 03:31:53;;;;;;;17.30;8.20;;;;;;;2.57;100.00;98343.75;5073289;28;20286;-72
2021/01/09 03:34:19;;;;;;;16.93;9.37;;;;;;;2.53;100.00;98337.13;5070389;28;20213;-72
2021/01/09 03:36:46;;;;;;;16.73;7.87;;;;;;;2.81;100.00;98338.00;5072312;28;20266;-72
2021/01/09 03:39:13;;;;;;;16.40;8.07;;;;;;;2.84;100.00;98340.34;5068249;28;20207;-72
2021/01/09 03:41:40;;;;;;;19.93;8.73;;;;;;;2.81;100.00;98338.84;5064233;28;20228;-71
2021/01/09 03:44:07;;;;;;;15.87;7.70;;;;;;;2.84;100.00;98340.34;5071211;28;20229;-71
2021/01/09 03:46:33;;;;;;;17.77;8.17;;;;;;;2.76;100.00;98340.22;5075355;28;20201;-71
2021/01/09 03:49:01;;;;;;;16.97;8.53;;;;;;;2.76;100.00;98343.72;5070230;28;20205;-71
2021/01/09 03:51:28;;;;;;;19.07;9.20;;;;;;;2.83;100.00;98333.41;5077787;28;20240;-71
2021/01/09 03:53:55;;;;;;;17.20;8.43;;;;;;;2.97;100.00;98333.78;5074716;28;20224;-72
2021/01/09 03:56:21;;;;;;;18.33;8.80;;;;;;;2.78;100.00;98335.63;5069030;28;20282;-71
2021/01/09 03:58:48;;;;;;;18.03;8.70;;;;;;;2.92;100.00;98338.66;5075539;28;20296;-72
2021/01/09 04:01:15;;;;;;;18.53;9.00;;;;;;;2.87;100.00;98340.88;5075567;28;20254;-72
2021/01/09 04:03:42;;;;;;;20.83;9.47;;;;;;;2.93;100.00;98337.66;5083201;28;20232;-72
2021/01/09 04:06:09;;;;;;;20.03;9.63;;;;;;;2.53;100.00;98337.13;5074312;28;20239;-72
2021/01/09 04:08:36;;;;;;;20.27;10.10;;;;;;;2.63;100.00;98337.06;5075109;28;20196;-73
2021/01/09 04:11:03;;;;;;;19.90;9.77;;;;;;;2.71;100.00;98345.94;5074053;28;20201;-72
2021/01/09 04:13:30;;;;;;;19.33;9.47;;;;;;;2.69;100.00;98350.50;5078236;28;20204;-72
2021/01/09 04:15:56;;;;;;;20.20;9.30;;;;;;;2.85;100.00;98345.44;5084988;28;20227;-73
2021/01/09 04:18:23;;;;;;;20.57;10.03;;;;;;;2.58;100.00;98341.94;5065188;28;20207;-70
2021/01/09 04:20:50;;;;;;;17.17;9.53;;;;;;;2.42;100.00;98347.81;5075776;28;20212;-70
2021/01/09 04:23:18;;;;;;;20.57;9.57;;;;;;;2.32;100.00;98354.06;5065033;28;20234;-71
2021/01/09 04:25:44;;;;;;;18.07;9.87;;;;;;;2.36;100.00;98344.91;5072855;28;20238;-71
2021/01/09 04:28:11;;;;;;;22.37;10.27;;;;;;;2.19;100.00;98349.09;5079338;28;20201;-72
2021/01/09 04:30:38;;;;;;;20.47;9.87;;;;;;;2.31;100.00;98348.00;5079472;28;20266;-70
2021/01/09 04:33:05;;;;;;;21.57;11.00;;;;;;;2.47;100.00;98350.00;5077931;28;20228;-72
2021/01/09 04:35:32;;;;;;;20.53;10.77;;;;;;;2.59;100.00;98338.34;5076482;28;20204;-72
2021/01/09 04:37:58;;;;;;;20.13;10.03;;;;;;;2.68;100.00;98346.22;5068472;28;20700;-73
2021/01/09 04:40:26;;;;;;;21.70;10.00;;;;;;;2.76;100.00;98350.78;5077301;28;20683;-72
2021/01/09 04:42:53;;;;;;;23.53;10.63;;;;;;;2.70;100.00;98346.91;5084840;28;20239;-73
2021/01/09 04:45:20;;;;;;;19.83;10.03;;;;;;;2.46;100.00;98345.72;5080303;28;21495;-73
2021/01/09 04:47:48;;;;;;;19.80;10.57;;;;;;;2.46;100.00;98343.09;5070691;28;20212;-73
2021/01/09 04:50:16;;;;;;;26.00;10.87;;;;;;;2.22;100.00;98350.63;5071046;28;20214;-70
2021/01/09 04:52:43;;;;;;;20.50;10.30;;;;;;;2.35;100.00;98353.78;5089284;22;20238;-74
2021/01/09 04:55:11;;;;;;;19.77;11.20;;;;;;;2.37;100.00;98349.22;5089438;28;20667;-74
2021/01/09 04:57:39;;;;;;;24.33;11.63;;;;;;;2.34;100.00;98354.78;5080870;28;20223;-75
2021/01/09 05:00:07;;;;;;;22.27;11.33;;;;;;;2.45;100.00;98352.78;5077273;28;20200;-74
2021/01/09 05:02:36;;;;;;;20.97;10.70;;;;;;;2.74;100.00;98344.81;5072977;28;20693;-73
2021/01/09 05:05:03;;;;;;;24.97;11.20;;;;;;;2.52;100.00;98358.31;5063221;28;20251;-74
2021/01/09 05:07:30;;;;;;;21.97;10.23;;;;;;;2.83;100.00;98350.06;5060442;28;20688;-75
2021/01/09 05:10:05;;;;;;;21.77;11.07;;;;;;;2.90;100.00;98348.47;5060320;28;20569;-74
2021/01/09 05:12:33;;;;;;;21.87;10.17;;;;;;;2.73;100.00;98356.31;5061115;28;20884;-74
2021/01/09 05:15:01;;;;;;;21.73;11.13;;;;;;;2.52;100.00;98350.41;5069030;28;20205;-74
2021/01/09 05:17:28;;;;;;;21.57;10.67;;;;;;;2.47;100.00;98361.41;5060786;28;20281;-74
2021/01/09 05:19:55;;;;;;;22.20;10.63;;;;;;;2.61;100.00;98358.31;5064150;28;20228;-74
2021/01/09 05:22:22;;;;;;;24.00;11.13;;;;;;;2.36;100.00;98353.66;5069360;28;20228;-73
2021/01/09 05:24:52;;;;;;;24.40;11.30;;;;;;;2.22;100.00;98362.00;5067523;28;20684;-74
2021/01/09 05:27:20;;;;;;;22.97;10.57;;;;;;;2.13;100.00;98356.75;5061788;28;20665;-74
2021/01/09 05:29:51;;;;;;;24.70;10.33;;;;;;;2.42;100.00;98354.88;5058249;28;20202;-75
2021/01/09 05:32:19;;;;;;;28.27;11.30;;;;;;;2.21;100.00;98370.03;5054881;28;20221;-74
2021/01/09 05:34:50;;;;;;;23.47;10.90;;;;;;;2.32;100.00;98367.22;5078947;28;20212;-74
2021/01/09 05:37:18;;;;;;;20.13;10.10;;;;;;;2.30;100.00;98359.47;5060087;28;20258;-74
2021/01/09 05:39:55;;;;;;;22.77;10.07;;;;;;;2.54;100.00;98369.56;5060674;28;20201;-74
2021/01/09 05:42:23;;;;;;;22.10;10.10;;;;;;;2.47;100.00;98361.41;5063316;28;20220;-73
2021/01/09 05:44:52;;;;;;;23.00;10.77;;;;;;;2.60;100.00;98369.81;5060755;28;20205;-74
2021/01/09 05:47:21;;;;;;;21.00;10.17;;;;;;;2.64;100.00;98370.38;5065668;28;20196;-74
2021/01/09 05:49:48;;;;;;;20.23;10.70;;;;;;;2.54;100.00;98370.38;5066227;28;20212;-74
2021/01/09 05:52:15;;;;;;;23.70;10.63;;;;;;;2.56;100.00;98378.16;5070465;28;20233;-74
2021/01/09 05:54:42;;;;;;;27.37;11.60;;;;;;;2.45;100.00;98380.94;5061054;28;20239;-74
2021/01/09 05:57:17;;;;;;;22.60;11.03;;;;;;;2.42;100.00;98379.44;5069856;28;20197;-74
2021/01/09 05:59:44;;;;;;;21.80;11.03;;;;;;;2.11;100.00;98374.47;5058901;28;20283;-74
2021/01/09 06:02:12;;;;;;;22.87;11.00;;;;;;;2.31;100.00;98378.75;5063244;28;20229;-74
2021/01/09 06:04:43;;;;;;;23.87;11.10;;;;;;;2.30;100.00;98382.34;5063803;28;20719;-74
2021/01/09 06:07:14;;;;;;;21.37;10.20;;;;;;;2.41;100.00;98379.56;5066090;28;20539;-74
2021/01/09 06:09:46;;;;;;;25.77;11.23;;;;;;;2.30;100.00;98379.72;5059962;28;20263;-73
2021/01/09 06:12:14;;;;;;;26.97;12.37;;;;;;;2.07;100.00;98378.34;5061705;28;20696;-74
2021/01/09 06:14:43;;;;;;;24.37;10.53;;;;;;;2.19;100.00;98379.88;5057180;28;20666;-74
2021/01/09 06:17:11;;;;;;;26.90;12.53;;;;;;;2.35;100.00;98382.75;5062263;28;20213;-75
2021/01/09 06:19:39;;;;;;;25.13;11.70;;;;;;;2.33;100.00;98382.91;5067195;28;20198;-74
2021/01/09 06:22:07;;;;;;;27.03;12.80;;;;;;;2.06;100.00;98380.16;5068962;28;20233;-77
2021/01/09 06:24:35;;;;;;;27.23;12.13;;;;;;;2.41;100.00;98390.09;5067711;28;20224;-74
2021/01/09 06:27:02;;;;;;;27.80;11.60;;;;;;;2.36;100.00;98390.53;5067309;28;20285;-74
2021/01/09 06:29:29;;;;;;;25.43;12.23;;;;;;;2.45;100.00;98387.03;5058773;28;20301;-74
2021/01/09 06:31:57;;;;;;;26.67;12.63;;;;;;;2.09;100.00;98387.75;5070894;28;20225;-75
2021/01/09 06:34:25;;;;;;;26.93;12.23;;;;;;;2.48;100.00;98396.44;5062589;28;20204;-73
2021/01/09 06:36:58;;;;;;;28.73;13.27;;;;;;;2.45;100.00;98391.47;5063720;28;20263;-73
2021/01/09 06:39:27;;;;;;;26.47;11.23;;;;;;;2.48;100.00;98399.06;5063230;28;20204;-75
2021/01/09 06:41:56;;;;;;;29.70;12.27;;;;;;;2.44;100.00;98398.53;5063722;28;20227;-74
2021/01/09 06:44:24;;;;;;;27.07;11.73;;;;;;;2.45;100.00;98402.00;5064551;28;20236;-73
2021/01/09 06:46:52;;;;;;;29.23;14.07;;;;;;;2.05;100.00;98404.81;5065479;28;20212;-74
2021/01/09 06:49:20;;;;;;;24.30;10.97;;;;;;;2.35;100.00;98399.38;5069946;28;20197;-74
2021/01/09 06:51:54;;;;;;;33.30;13.53;;;;;;;1.98;100.00;98408.16;5071395;28;20255;-74
2021/01/09 06:54:43;;;;;;;26.23;12.50;;;;;;;2.36;100.00;98395.78;5070557;28;20249;-75
2021/01/09 06:57:17;;;;;;;31.87;13.77;;;;;;;2.45;100.00;98404.66;5062461;28;20197;-76
2021/01/09 06:59:45;;;;;;;27.57;12.80;;;;;;;2.53;100.00;98402.97;5069697;28;20196;-73
2021/01/09 07:02:25;;;;;;;29.63;12.60;;;;;;;2.46;100.00;98407.16;5062016;28;20312;-76
2021/01/09 07:04:53;;;;;;;29.13;12.17;;;;;;;2.21;100.00;98402.47;5061440;28;20213;-76
2021/01/09 07:07:34;;;;;;;30.17;13.43;;;;;;;2.28;100.00;98405.34;5069060;28;20213;-73
2021/01/09 07:10:06;;;;;;;27.03;12.70;;;;;;;2.46;100.00;98401.88;5065162;28;20193;-76
2021/01/09 07:12:34;;;;;;;28.37;12.87;;;;;;;2.29;100.00;98405.22;5063576;28;20267;-74
2021/01/09 07:15:06;;;;;;;28.33;13.23;;;;;;;2.15;100.00;98410.91;5033933;28;20723;-75
2021/01/09 07:17:38;;;;;;;29.67;14.07;;;;;;;2.14;100.00;98411.88;5016777;28;20202;-74
2021/01/09 07:20:07;;;;;;;29.83;13.30;;;;;;;2.09;100.00;98413.25;5020267;28;20210;-75
2021/01/09 07:22:37;;;;;;;27.70;12.90;;;;;;;2.20;100.00;98418.38;5024151;28;20218;-74
2021/01/09 07:25:08;;;;;;;31.70;14.23;;;;;;;2.50;100.00;98416.41;5016254;28;20224;-75
2021/01/09 07:27:39;;;;;;;28.60;11.60;;;;;;;2.22;100.00;98416.44;5020260;28;20568;-74
2021/01/09 07:30:13;;;;;;;30.17;14.13;;;;;;;1.74;100.00;98418.22;5023235;28;20260;-75
2021/01/09 07:32:50;;;;;;;30.20;12.90;;;;;;;2.20;100.00;98423.66;5025816;28;20222;-76
2021/01/09 07:35:24;;;;;;;30.80;14.93;;;;;;;2.02;100.00;98420.03;5033511;28;20206;-79
2021/01/09 07:37:54;;;;;;;26.93;13.00;;;;;;;2.17;100.00;98419.50;5036057;28;20208;-78
2021/01/09 07:40:22;;;;;;;30.60;14.43;;;;;;;2.14;100.00;98426.84;5027066;28;20679;-78
2021/01/09 07:42:50;;;;;;;30.97;14.70;;;;;;;2.08;100.00;98430.84;5034550;28;20636;-78
2021/01/09 07:45:19;;;;;;;28.93;12.90;;;;;;;2.31;100.00;98421.72;5036830;28;20549;-77
2021/01/09 07:47:47;;;;;;;32.90;13.90;;;;;;;2.59;100.00;98426.09;5036821;28;20203;-77
2021/01/09 07:50:16;;;;;;;36.60;15.50;;;;;;;2.14;100.00;98434.75;5031136;28;20210;-76
2021/01/09 07:52:43;;;;;;;34.57;14.10;;;;;;;2.14;100.00;98435.56;5023562;28;20689;-78
2021/01/09 07:55:14;;;;;;;34.73;15.10;;;;;;;2.05;100.00;98438.19;5021227;28;20199;-80
2021/01/09 07:57:42;;;;;;;31.97;14.27;;;;;;;2.37;100.00;98438.75;5020366;28;20691;-78
2021/01/09 08:00:18;;;;;;;34.07;13.90;;;;;;;2.28;100.00;98442.19;5035410;28;20230;-77
2021/01/09 08:02:46;;;;;;;31.33;14.47;;;;;;;2.30;100.00;98440.28;5035064;28;20328;-76
2021/01/09 08:05:19;;;;;;;31.87;13.93;;;;;;;2.33;100.00;98450.53;5032591;28;20210;-77
2021/01/09 08:07:49;;;;;;;28.67;13.60;;;;;;;2.26;100.00;98447.63;5021785;28;20202;-78
2021/01/09 08:10:25;;;;;;;32.60;14.57;;;;;;;2.26;100.00;98452.91;5033704;28;20202;-78
2021/01/09 08:12:59;;;;;;;29.23;14.00;;;;;;;2.32;100.00;98452.34;5037312;28;20221;-79
2021/01/09 08:15:28;;;;;;;29.10;13.50;;;;;;;2.37;100.00;98460.66;5030857;28;20193;-79
2021/01/09 08:17:55;;;;;;;28.17;13.10;;;;;;;2.23;100.00;98466.31;5034731;28;20306;-76
2021/01/09 08:20:22;;;;;;;29.57;14.33;;;;;;;2.52;100.00;98458.41;5034078;28;20198;-78
2021/01/09 08:22:54;;;;;;;32.00;14.93;;;;;;;2.37;100.00;98465.06;5020713;28;20235;-78
2021/01/09 08:25:22;;;;;;;28.60;14.60;;;;;;;2.06;100.00;98471.44;5034873;28;20206;-77
2021/01/09 08:27:51;;;;;;;26.47;12.87;;;;;;;2.58;100.00;98463.13;5035979;28;20206;-79
2021/01/09 08:30:21;;;;;;;32.50;14.40;;;;;;;2.46;100.00;98462.47;5018674;28;20202;-73
2021/01/09 08:32:48;;;;;;;34.17;14.13;;;;;;;2.53;100.00;98463.56;5032117;28;20305;-75
2021/01/09 08:35:15;;;;;;;31.50;13.13;;;;;;;2.37;100.00;98473.81;5033290;28;20198;-76
2021/01/09 08:37:43;;;;;;;28.03;12.27;;;;;;;2.39;100.00;98468.41;5030406;28;20662;-77
2021/01/09 08:40:12;;;;;;;34.00;14.63;;;;;;;2.31;100.00;98476.16;5024061;28;20691;-76
2021/01/09 08:42:50;;;;;;;32.93;15.10;;;;;;;2.23;100.00;98476.84;5028419;28;20313;-75
2021/01/09 08:45:18;;;;;;;25.23;12.33;;;;;;;2.60;100.00;98477.81;5032511;28;20968;-76
2021/01/09 08:47:46;;;;;;;27.27;12.80;;;;;;;2.37;100.00;98476.44;5020612;28;20221;-76
2021/01/09 08:50:13;;;;;;;27.37;13.23;;;;;;;2.12;100.00;98482.25;5027791;28;20205;-77
2021/01/09 08:52:45;;;;;;;25.83;12.27;;;;;;;2.30;100.00;98488.50;5024300;28;20238;-73
2021/01/09 08:55:14;;;;;;;32.00;14.20;;;;;;;2.42;100.00;98486.56;5021093;28;20214;-78
2021/01/09 08:57:41;;;;;;;31.70;13.97;;;;;;;2.42;100.00;98487.41;5026112;28;20210;-77
2021/01/09 09:00:09;;;;;;;29.17;13.50;;;;;;;2.29;100.00;98489.47;5022599;28;20207;-76
2021/01/09 09:02:38;;;;;;;32.70;13.57;;;;;;;2.42;100.00;98491.81;5035421;28;20301;-79
2021/01/09 09:05:07;;;;;;;26.73;12.87;;;;;;;2.30;100.00;98492.94;5036921;28;20300;-78
2021/01/09 09:07:36;;;;;;;27.13;13.03;;;;;;;2.58;100.00;98486.81;5036709;28;20275;-77
2021/01/09 09:10:04;;;;;;;31.30;14.00;;;;;;;2.67;100.00;98492.09;5032647;28;20242;-78
2021/01/09 09:12:31;;;;;;;24.60;12.77;;;;;;;2.51;100.00;98499.75;5029577;28;20229;-79
2021/01/09 09:14:59;;;;;;;31.10;12.27;;;;;;;2.61;100.00;98500.56;5029772;28;20214;-77
2021/01/09 09:17:26;;;;;;;29.47;13.00;;;;;;;2.60;100.00;98488.34;5029815;28;20570;-75
2021/01/09 09:19:54;;;;;;;30.73;13.17;;;;;;;2.63;100.00;98495.16;5031319;28;20260;-77
2021/01/09 09:22:31;;;;;;;24.03;12.53;;;;;;;3.04;100.00;98500.94;5031186;28;20218;-80
2021/01/09 09:24:58;;;;;;;27.83;12.00;;;;;;;2.63;100.00;98510.94;5013900;28;20206;-76
2021/01/09 09:27:26;;;;;;;27.33;12.67;;;;;;;2.75;100.00;98504.59;5033537;28;20203;-79
2021/01/09 09:30:07;;;;;;;26.57;12.60;;;;;;;2.66;100.00;98502.78;5034151;28;20202;-77
2021/01/09 09:32:34;;;;;;;26.47;12.73;;;;;;;2.39;100.00;98510.56;5033742;28;20230;-77
2021/01/09 09:35:20;;;;;;;23.70;11.83;;;;;;;2.42;100.00;98518.16;5028850;28;20204;-77
2021/01/09 09:37:46;;;;;;;24.90;10.20;;;;;;;2.65;100.00;98515.09;5023121;28;20198;-78
2021/01/09 09:40:26;;;;;;;22.73;10.90;;;;;;;2.54;100.00;98525.78;5015757;28;20203;-78
2021/01/09 09:42:54;;;;;;;25.87;11.30;;;;;;;2.15;100.00;98521.47;5020905;28;20235;-77
2021/01/09 09:45:21;;;;;;;22.07;10.87;;;;;;;2.40;100.00;98530.66;5019010;28;20210;-79
2021/01/09 09:47:49;;;;;;;21.50;10.20;;;;;;;2.83;100.00;98528.41;5025751;28;20202;-79
2021/01/09 09:50:19;;;;;;;20.70;9.70;;;;;;;2.62;100.00;98533.00;5032259;28;20281;-79
2021/01/09 09:52:57;;;;;;;22.90;10.77;;;;;;;2.24;100.00;98540.88;5033512;28;20609;-77
2021/01/09 09:55:24;;;;;;;23.27;10.27;;;;;;;2.03;100.00;98538.34;5020986;28;20210;-77
2021/01/09 09:58:08;;;;;;;20.00;9.70;;;;;;;2.19;100.00;98537.84;5030674;28;20634;-79
2021/01/09 10:00:41;;;;;;;19.43;8.77;;;;;;;2.46;100.00;98530.94;5032327;28;20218;-77
2021/01/09 10:03:08;;;;;;;17.67;8.53;;;;;;;2.26;100.00;98528.41;5023438;28;20227;-77
2021/01/09 10:05:36;;;;;;;17.67;8.43;;;;;;;2.96;100.00;98524.50;5017927;28;20204;-78
2021/01/09 10:08:10;;;;;;;21.67;9.50;;;;;;;2.59;100.00;98530.66;5029612;28;20216;-79
2021/01/09 10:10:37;;;;;;;19.27;9.80;;;;;;;2.58;100.00;98528.97;5028682;28;20202;-78
2021/01/09 10:13:04;;;;;;;20.00;10.00;;;;;;;2.74;100.00;98530.09;5028907;28;20222;-78
2021/01/09 10:15:31;;;;;;;19.43;9.87;;;;;;;2.62;100.00;98527.75;5038623;28;20198;-77
2021/01/09 10:17:59;;;;;;;16.87;8.07;;;;;;;2.90;100.00;98526.91;5043915;28;20202;-78
2021/01/09 10:20:26;;;;;;;15.67;8.67;;;;;;;3.20;100.00;98534.63;5047441;28;20231;-78
2021/01/09 10:22:54;;;;;;;20.83;9.23;;;;;;;2.80;100.00;98526.09;5047481;28;20285;-77
2021/01/09 10:25:21;;;;;;;17.93;9.20;;;;;;;3.11;100.00;98530.19;5047812;28;20676;-78
2021/01/09 10:27:51;;;;;;;20.20;10.07;;;;;;;3.04;100.00;98522.00;5037015;28;20578;-79
2021/01/09 10:30:18;;;;;;;15.63;8.63;;;;;;;2.99;100.00;98526.03;5026019;28;20621;-76
2021/01/09 10:32:45;;;;;;;16.67;8.03;;;;;;;3.04;100.00;98524.66;5031751;28;20385;-78
2021/01/09 10:35:12;;;;;;;15.60;7.80;;;;;;;2.71;100.00;98524.28;5026993;28;20234;-77
2021/01/09 10:37:39;;;;;;;19.03;9.40;;;;;;;2.99;100.00;98526.03;5033637;28;20938;-76
2021/01/09 10:40:08;;;;;;;18.77;9.23;;;;;;;3.33;100.00;98535.97;5033249;28;20660;-77
2021/01/09 10:42:35;;;;;;;16.67;8.53;;;;;;;2.70;100.00;98531.34;5032907;28;20749;-76
2021/01/09 10:45:02;;;;;;;16.70;8.17;;;;;;;2.43;100.00;98533.00;5025423;28;20686;-78
2021/01/09 10:47:29;;;;;;;18.07;9.03;;;;;;;2.58;100.00;98529.81;5025278;28;20208;-77
2021/01/09 10:49:56;;;;;;;18.23;8.80;;;;;;;2.74;100.00;98522.19;5032463;28;20213;-78
2021/01/09 10:52:23;;;;;;;20.00;9.10;;;;;;;2.99;100.00;98526.03;5032572;28;20238;-76
2021/01/09 10:54:50;;;;;;;17.30;8.93;;;;;;;2.98;100.00;98530.50;5038448;23;20234;-72
2021/01/09 10:57:18;;;;;;;17.10;9.10;;;;;;;2.81;100.00;98520.69;5048982;28;20217;-74
2021/01/09 10:59:44;;;;;;;18.30;8.60;;;;;;;2.94;100.00;98517.72;5040816;28;20207;-73
2021/01/09 11:02:11;;;;;;;16.17;8.07;;;;;;;3.42;100.00;98523.72;5051118;28;20203;-73
2021/01/09 11:04:38;;;;;;;15.67;8.37;;;;;;;2.73;100.00;98523.16;5050640;28;20256;-72
2021/01/09 11:07:05;;;;;;;12.90;7.30;;;;;;;2.81;100.00;98528.59;5045943;28;20565;-73
2021/01/09 11:09:31;;;;;;;18.40;8.07;;;;;;;3.24;100.00;98518.34;5040921;28;20214;-73
2021/01/09 11:11:58;;;;;;;15.07;7.80;;;;;;;2.95;100.00;98529.94;5049538;28;20573;-73
2021/01/09 11:14:26;;;;;;;15.30;7.40;;;;;;;3.06;100.00;98519.25;5051235;28;20221;-72
2021/01/09 11:16:55;;;;;;;15.63;8.53;;;;;;;3.36;100.00;98521.66;5051074;28;20207;-73
2021/01/09 11:19:21;;;;;;;17.37;8.13;;;;;;;3.16;100.00;98518.22;5039925;28;20207;-73
2021/01/09 11:21:48;;;;;;;13.63;6.73;;;;;;;2.96;100.00;98519.25;5045086;28;20242;-73
2021/01/09 11:24:15;;;;;;;14.27;7.33;;;;;;;3.55;100.00;98525.06;5036779;28;20235;-73
2021/01/09 11:26:42;;;;;;;12.20;5.90;;;;;;;3.68;100.00;98525.56;5042084;28;20211;-73